Wendel, California
Current Conditions -  °F | °C
As of 9:35 AM on Saturday 25 Oct 2014 (Local Time) from KRTS Reporting Station
Clear Clear  
Wind Chill: 57°   Ceiling: Unl
Heat Index: 57°   Visibility: 10mi
Dew Point: 25°   Wind: 26mph
Humidity: 29%   Direction: 180°S
Pressure: 29.95"   Gusts: 45mph
Location:  40.35°N, 120.24°W
Report Text: KRTS 251635Z AUTO 18023G39KT 10SM CLR 14/M04 A2995 RMK AO2
Loading
Personal Weather Stations






























Interactive Weather Map
Tropical Storm Tracking
New forecast layout! Learn more

10-Day Weather Forecast

Advertisements
Track Severe Weather on mobile